Aérodrome :
LOGIN :

S'inscrire | Disclaimer

   EN    FR    IT 

 










Légende :    VFR   VFR Marginal   IFR   IFR Intensif   IFR Très Intensif
Visi : 
Plafond : 
>= 8 km
>= 3000ft
5 à 8 km
1000 à 3000 ft
1500m à 5 km
500 à 1000 ft
800 à 1500m
200 à 500 ft
< 800m
< 200 ft
Symboles :   Orages  Brouillard  Fortes neiges  Fortes précipitations  Vent > 20 kt
SIGMETs :   Divers  Orages  Givrage  Turbulence  Onde Orograph.  Cendres Volcan.







- Altitude de l'aérodrome : 913 ft
- Voir les cartes d'approche


LFSX - Luxeuil

DERNIER METAR :
  • 150500Z AUTO 06001KT 7000 OVC028 M02/M03 Q1023 TEMPO 0300 FZFG

METARs EXPIRÉS :
  • 150430Z AUTO 00000KT 7000 OVC029 M02/M04 Q1023 TEMPO 0300 FZFG
  • 150400Z AUTO 09002KT 7000 OVC029 M02/M04 Q1023 TEMPO 0300 FZFG
  • 150330Z AUTO 00000KT 7000 OVC031 M02/M04 Q1023 TEMPO 0300 FZFG
  • 150300Z AUTO 16001KT 7000 OVC032 M02/M03 Q1023 TEMPO 0300 FZFG
  • 150230Z AUTO 00000KT 8000 OVC032 M02/M04 Q1023 TEMPO 0300 FZFG

TAF TAF LFSX
Valide du 15 à 03h jusqu'au 16 à 03h UTC


150200Z 1503/1603 VRB02KT 6000 OVC030
PROB40 1503/1508 3000 BR
PROB30 1503/1508 0300 FZFG
Pas de NOTAMs connus pour ce terrain.



MET'MAP, la Météo Aéronautique d'un coup d'oeil ! - Copyright ORBIFLY Décembre 2007 - Disclaimer

ORBIFLY MET'MAP TEAM :

Programmation & Développement : Alexandra Zaïnal
Conception & Développement : Baudouin d'Aumeries
Co-Programmation & Développement : Marc-Olivier Méhu
Soutien technique & logistique : Manuel Goepfert

Contact : metmap@orbifly.com




SOURCES & CREDITS :

   NOAA